Time;durP1;ratioP1;P1;durP2;ratioP2;P2;SDS_P1;SDS_P2;PMS_P1;PMS_P2;Temp;Humidity;BMP_temperature;BMP_pressure;BME280_temperature;BME280_humidity;BME280_pressure;Samples;Min_cycle;Max_cycle;Signal;HPM_P1;HPM_P2
2022/06/12 00:01:01;;;;;;;11.73;6.47;;;;;;;18.53;51.76;101806.50;5041715;28;20405;-74
2022/06/12 00:03:28;;;;;;;10.63;6.90;;;;;;;18.38;52.21;101802.19;5040576;28;20198;-74
2022/06/12 00:05:56;;;;;;;11.90;6.50;;;;;;;18.43;52.01;101805.69;5041472;28;20176;-74
2022/06/12 00:08:23;;;;;;;13.10;7.07;;;;;;;18.48;52.64;101803.00;5041966;28;20416;-74
2022/06/12 00:10:50;;;;;;;11.87;6.00;;;;;;;18.52;51.88;101800.34;5041300;28;20387;-74
2022/06/12 00:13:21;;;;;;;13.60;5.93;;;;;;;18.71;51.87;101804.59;5040984;28;20437;-73
2022/06/12 00:15:47;;;;;;;11.90;6.23;;;;;;;18.51;52.32;101803.00;5041091;28;20408;-74
2022/06/12 00:18:12;;;;;;;13.10;5.83;;;;;;;18.64;52.15;101809.91;5040926;28;20473;-74
2022/06/12 00:20:38;;;;;;;9.67;5.83;;;;;;;18.47;52.68;101807.41;5040948;28;20494;-73
2022/06/12 00:23:09;;;;;;;14.10;6.20;;;;;;;18.53;52.13;101806.50;5041482;28;20163;-72
2022/06/12 00:25:35;;;;;;;10.50;5.97;;;;;;;18.33;52.83;101811.88;5040967;28;20196;-73
2022/06/12 00:28:00;;;;;;;9.47;6.30;;;;;;;18.51;52.27;101809.13;5040911;28;20405;-73
2022/06/12 00:30:26;;;;;;;10.93;5.70;;;;;;;18.37;52.63;101810.97;5041597;28;20231;-73
2022/06/12 00:32:54;;;;;;;11.87;5.57;;;;;;;18.30;53.14;101804.00;5041196;28;20166;-74
2022/06/12 00:35:27;;;;;;;12.80;5.60;;;;;;;18.30;53.06;101810.13;5040518;28;20826;-73
2022/06/12 00:37:52;;;;;;;14.90;5.57;;;;;;;18.11;53.66;101813.75;5040966;28;20698;-73
2022/06/12 00:40:19;;;;;;;9.00;5.80;;;;;;;18.13;53.52;101804.97;5040902;28;20431;-74
2022/06/12 00:42:48;;;;;;;9.03;5.90;;;;;;;18.08;53.82;101804.09;5041149;28;20162;-74
2022/06/12 00:45:42;;;;;;;10.70;5.70;;;;;;;18.07;53.29;101810.25;5040666;28;20405;-74
2022/06/12 00:48:17;;;;;;;15.33;6.70;;;;;;;18.02;53.71;101806.75;5040822;28;20451;-76
2022/06/12 00:50:47;;;;;;;9.67;5.30;;;;;;;18.06;53.81;101804.97;5040565;28;20769;-73
2022/06/12 00:53:18;;;;;;;15.17;6.90;;;;;;;18.28;52.68;101797.81;5039683;28;20777;-74
2022/06/12 00:55:52;;;;;;;8.73;5.43;;;;;;;18.08;53.45;101800.59;5040153;28;20837;-72
2022/06/12 00:58:22;;;;;;;11.90;6.60;;;;;;;18.26;53.02;101802.25;5040395;28;20939;-73
2022/06/12 01:00:48;;;;;;;10.00;5.47;;;;;;;18.35;53.02;101799.56;5040492;28;20417;-74
2022/06/12 01:03:14;;;;;;;15.87;6.43;;;;;;;18.32;53.16;101799.56;5040096;28;20387;-73
2022/06/12 01:08:25;;;;;;;15.50;7.40;;;;;;;18.41;53.65;101798.66;5040425;28;20483;-72
2022/06/12 01:10:53;;;;;;;12.83;7.50;;;;;;;18.33;54.21;101796.94;5039422;28;20400;-72
2022/06/12 01:13:24;;;;;;;10.23;7.13;;;;;;;18.45;54.26;101793.31;5039236;28;20557;-72
2022/06/12 01:15:52;;;;;;;10.60;7.53;;;;;;;18.12;55.13;101797.91;5040104;28;20383;-72
2022/06/12 01:18:21;;;;;;;18.00;8.30;;;;;;;18.04;56.06;101797.06;5039749;28;20912;-73
2022/06/12 01:21:01;;;;;;;11.80;8.30;;;;;;;18.18;55.96;101794.38;5039935;28;20490;-72
2022/06/12 01:23:45;;;;;;;17.80;8.93;;;;;;;17.92;56.61;101795.38;5039806;28;20379;-73
2022/06/12 01:26:30;;;;;;;19.43;8.70;;;;;;;17.87;56.94;101796.25;5039880;28;20387;-73
2022/06/12 01:29:30;;;;;;;14.93;7.93;;;;;;;17.87;56.90;101793.59;5039315;28;20821;-73
2022/06/12 01:32:28;;;;;;;12.30;8.10;;;;;;;17.68;57.66;101796.28;5022970;28;20835;-73
2022/06/12 01:35:00;;;;;;;10.23;7.60;;;;;;;17.72;57.48;101790.13;5039012;28;20454;-73
2022/06/12 01:37:44;;;;;;;11.93;8.10;;;;;;;17.68;58.21;101789.28;5038979;28;20485;-73
2022/06/12 01:40:32;;;;;;;13.07;9.10;;;;;;;17.88;57.60;101787.44;5039619;28;20380;-73
2022/06/12 01:43:16;;;;;;;12.13;9.00;;;;;;;17.71;58.17;101783.13;5038603;28;20409;-73
2022/06/12 01:45:54;;;;;;;13.40;8.80;;;;;;;17.53;58.94;101780.53;5039572;28;20379;-71
2022/06/12 01:48:41;;;;;;;11.00;8.20;;;;;;;17.61;58.96;101782.25;5039709;28;20438;-72
2022/06/12 01:51:30;;;;;;;18.87;9.33;;;;;;;17.85;58.29;101781.28;5038625;28;20434;-72
2022/06/12 01:54:23;;;;;;;10.27;8.63;;;;;;;17.60;58.50;101775.25;5038648;28;20423;-72
2022/06/12 01:56:57;;;;;;;13.37;7.10;;;;;;;17.46;59.21;101775.25;5039227;28;20433;-72
2022/06/12 01:59:25;;;;;;;14.10;7.93;;;;;;;17.46;59.23;101777.88;5039313;28;20386;-72
2022/06/12 02:01:54;;;;;;;9.97;7.63;;;;;;;17.37;59.39;101777.03;5039324;28;20441;-72
2022/06/12 02:04:27;;;;;;;15.20;8.20;;;;;;;17.54;58.81;101777.00;5039180;28;20459;-72
2022/06/12 02:06:59;;;;;;;10.70;7.47;;;;;;;17.45;59.03;101778.75;5037600;28;20456;-72
2022/06/12 02:09:50;;;;;;;10.50;7.80;;;;;;;17.41;59.07;101774.38;5038478;28;20462;-72
2022/06/12 02:15:08;;;;;;;10.70;7.57;;;;;;;17.37;59.23;101770.00;5038590;28;20475;-73
2022/06/12 02:17:37;;;;;;;12.83;8.37;;;;;;;17.40;58.77;101779.66;5038917;28;20444;-73
2022/06/12 02:20:09;;;;;;;12.67;6.90;;;;;;;17.22;59.09;101780.56;5039679;28;20791;-73
2022/06/12 02:22:38;;;;;;;13.03;7.47;;;;;;;17.14;59.02;101776.22;5038698;28;20413;-73
2022/06/12 02:25:15;;;;;;;11.73;7.17;;;;;;;17.34;59.18;101772.66;5038179;28;20448;-72
2022/06/12 02:27:50;;;;;;;18.33;7.63;;;;;;;17.32;58.91;101775.28;5038877;28;20408;-76
2022/06/12 02:30:23;;;;;;;12.10;7.63;;;;;;;17.23;59.18;101772.66;5038580;28;20451;-73
2022/06/12 02:32:58;;;;;;;11.93;6.53;;;;;;;17.10;59.37;101774.44;5038741;28;20785;-73
2022/06/12 02:35:32;;;;;;;14.73;8.37;;;;;;;17.17;59.47;101778.81;5039029;28;20409;-73
2022/06/12 02:38:02;;;;;;;12.60;7.53;;;;;;;17.34;58.87;101778.78;5038647;28;20452;-72
2022/06/12 02:40:30;;;;;;;13.87;7.97;;;;;;;17.01;59.75;101785.00;5037988;28;20682;-72
2022/06/12 02:42:57;;;;;;;10.93;7.73;;;;;;;17.11;59.24;101775.31;5054115;28;20879;-73
2022/06/12 02:45:25;;;;;;;8.00;6.43;;;;;;;17.07;59.58;101769.16;5037787;28;20634;-72
2022/06/12 02:47:51;;;;;;;12.30;6.73;;;;;;;16.96;60.01;101769.16;5038036;28;20401;-72
2022/06/12 02:50:21;;;;;;;9.90;6.97;;;;;;;17.16;59.47;101766.53;5037815;28;20402;-74
2022/06/12 02:53:11;;;;;;;13.93;7.60;;;;;;;16.94;60.34;101764.78;5037615;28;20566;-71
2022/06/12 02:55:57;;;;;;;10.90;6.97;;;;;;;17.17;59.50;101760.38;5038371;28;20480;-73
2022/06/12 02:58:37;;;;;;;8.93;6.47;;;;;;;17.05;59.51;101765.66;5037605;28;20484;-73
2022/06/12 03:01:08;;;;;;;8.67;5.77;;;;;;;17.10;59.31;101758.66;5037615;28;20793;-72
2022/06/12 03:03:53;;;;;;;10.60;6.90;;;;;;;17.07;59.99;101756.00;5037480;28;20388;-72
2022/06/12 03:06:19;;;;;;;8.40;6.20;;;;;;;16.99;60.16;101756.03;5020971;28;20490;-72
2022/06/12 03:08:48;;;;;;;9.83;6.70;;;;;;;17.14;60.10;101759.50;5037537;28;20420;-71
2022/06/12 03:11:17;;;;;;;15.57;6.40;;;;;;;17.10;60.07;101758.66;5037491;28;20479;-71
2022/06/12 03:13:44;;;;;;;10.70;6.73;;;;;;;17.23;59.70;101743.69;5037869;28;20426;-71
2022/06/12 03:16:19;;;;;;;9.47;6.30;;;;;;;17.36;59.31;101746.28;5038377;28;20408;-71
2022/06/12 03:18:48;;;;;;;10.80;6.00;;;;;;;17.32;59.40;101748.94;5037454;28;20469;-72
2022/06/12 03:21:20;;;;;;;14.13;7.20;;;;;;;17.54;57.73;101753.28;5037358;28;20388;-72
2022/06/12 03:24:10;;;;;;;14.00;7.50;;;;;;;17.49;58.26;101748.91;5038072;28;20413;-71
2022/06/12 03:26:39;;;;;;;9.23;5.57;;;;;;;17.33;57.94;101752.44;5038006;28;20397;-71
2022/06/12 03:29:42;;;;;;;10.00;5.57;;;;;;;17.39;58.37;101749.81;5037303;28;20422;-71
2022/06/12 03:32:37;;;;;;;8.80;6.33;;;;;;;17.36;58.32;101755.09;5037297;28;20416;-72
2022/06/12 03:35:21;;;;;;;10.60;6.80;;;;;;;17.62;57.72;101751.50;5037470;28;20815;-72
2022/06/12 03:38:03;;;;;;;10.10;6.30;;;;;;;17.55;58.07;101752.38;5037994;28;20517;-72
2022/06/12 03:40:49;;;;;;;9.37;6.30;;;;;;;17.84;57.46;101753.16;5037876;28;20487;-73
2022/06/12 03:43:33;;;;;;;9.17;6.80;;;;;;;17.95;56.79;101753.13;5037778;28;20411;-72
2022/06/12 03:46:04;;;;;;;10.03;6.97;;;;;;;18.29;55.70;101749.44;5037833;28;20392;-72
2022/06/12 03:48:35;;;;;;;12.33;6.73;;;;;;;18.64;54.49;101756.22;5037825;28;20647;-72
2022/06/12 03:51:09;;;;;;;15.67;7.57;;;;;;;18.84;53.78;101756.94;5036951;28;20492;-72
2022/06/12 03:53:53;;;;;;;12.83;6.80;;;;;;;18.75;54.13;101749.09;5037720;28;20405;-72
2022/06/12 03:59:29;;;;;;;13.27;6.33;;;;;;;19.62;51.99;101748.25;5037777;28;20455;-72
2022/06/12 04:01:55;;;;;;;11.33;6.47;;;;;;;20.10;50.92;101743.25;5036887;28;20434;-72
2022/06/12 04:04:24;;;;;;;8.67;6.00;;;;;;;20.37;49.68;101751.69;5036831;28;20444;-73
2022/06/12 04:06:51;;;;;;;10.90;6.60;;;;;;;20.13;50.35;101753.81;5036969;28;20426;-72
2022/06/12 04:09:20;;;;;;;11.10;6.43;;;;;;;20.33;49.98;101750.88;5036918;28;20428;-72
2022/06/12 04:11:53;;;;;;;8.83;6.00;;;;;;;21.07;47.99;101751.47;5037245;28;20416;-72
2022/06/12 04:14:20;;;;;;;12.40;7.00;;;;;;;21.25;47.85;101744.94;5036893;28;20525;-72
2022/06/12 04:16:48;;;;;;;10.40;6.47;;;;;;;21.40;47.11;101751.72;5037236;28;20715;-73
2022/06/12 04:19:17;;;;;;;13.13;6.63;;;;;;;21.59;46.82;101743.44;5036708;28;20406;-73
2022/06/12 04:21:50;;;;;;;9.50;6.13;;;;;;;21.91;46.23;101740.13;5036729;28;20449;-73
2022/06/12 04:24:23;;;;;;;11.33;5.90;;;;;;;21.85;46.10;101746.44;5036743;28;20432;-73
2022/06/12 04:26:50;;;;;;;10.30;6.30;;;;;;;21.83;46.34;101750.88;5036646;28;20421;-73
2022/06/12 04:29:55;;;;;;;10.17;6.40;;;;;;;22.53;44.48;101750.22;5037934;28;20470;-72
2022/06/12 04:32:21;;;;;;;11.80;5.90;;;;;;;22.84;43.95;101743.25;5040308;28;20417;-73
2022/06/12 04:34:47;;;;;;;10.53;6.27;;;;;;;22.89;43.58;101744.00;5040257;28;20424;-73
2022/06/12 04:37:22;;;;;;;11.43;6.00;;;;;;;23.26;42.64;101744.84;5040789;28;20459;-72
2022/06/12 04:39:49;;;;;;;11.37;6.67;;;;;;;23.13;43.17;101745.19;5040762;28;20174;-73
2022/06/12 04:42:16;;;;;;;8.50;6.13;;;;;;;23.26;42.84;101735.09;5040912;28;20436;-73
2022/06/12 04:44:43;;;;;;;11.50;6.20;;;;;;;23.94;40.25;101733.16;5040999;28;20659;-72
2022/06/12 04:47:11;;;;;;;10.77;6.30;;;;;;;24.70;39.77;101726.28;5040655;28;20421;-73
2022/06/12 04:49:37;;;;;;;11.00;6.20;;;;;;;25.48;37.08;101715.56;5039985;28;20664;-72
2022/06/12 04:52:05;;;;;;;8.37;5.90;;;;;;;25.89;35.70;101726.47;5040952;28;20463;-73
2022/06/12 04:54:32;;;;;;;9.03;6.50;;;;;;;26.35;34.73;101719.31;5040335;28;20229;-73
2022/06/12 04:56:58;;;;;;;8.43;6.90;;;;;;;26.41;34.66;101715.50;5040372;28;20492;-73
2022/06/12 04:59:23;;;;;;;8.60;7.60;;;;;;;26.71;33.97;101712.50;5040770;28;20419;-73
2022/06/12 05:01:49;;;;;;;10.23;7.97;;;;;;;27.23;33.96;101704.00;5040423;28;20421;-73
2022/06/12 05:04:15;;;;;;;10.37;7.93;;;;;;;27.37;33.50;101704.28;5040141;28;20216;-73
2022/06/12 05:06:42;;;;;;;8.73;7.30;;;;;;;26.61;34.54;101703.97;5040882;28;20439;-73
2022/06/12 05:09:09;;;;;;;12.23;7.70;;;;;;;25.43;36.78;101704.22;5040301;28;20514;-73
2022/06/12 05:11:34;;;;;;;9.40;6.47;;;;;;;26.75;34.20;101705.22;5040114;28;20413;-74
2022/06/12 05:14:00;;;;;;;9.60;6.60;;;;;;;26.29;35.06;101708.00;5040476;28;20420;-73
2022/06/12 05:16:37;;;;;;;11.27;6.40;;;;;;;25.37;35.63;101702.63;5040114;28;20180;-73
2022/06/12 05:19:05;;;;;;;8.57;7.00;;;;;;;26.00;35.62;101699.34;5039012;28;20229;-73
2022/06/12 05:21:32;;;;;;;8.77;5.90;;;;;;;25.50;36.97;101692.38;5039874;28;20417;-73
2022/06/12 05:23:58;;;;;;;11.97;5.70;;;;;;;26.11;35.42;101699.81;5039246;28;20405;-73
2022/06/12 05:26:24;;;;;;;6.97;5.10;;;;;;;26.59;34.44;101700.50;5040238;28;20405;-73
2022/06/12 05:28:50;;;;;;;7.40;5.00;;;;;;;27.21;33.38;101704.06;5040007;28;20417;-74
2022/06/12 05:31:16;;;;;;;8.43;5.37;;;;;;;25.61;36.11;101713.31;5039140;28;20261;-73
2022/06/12 05:33:43;;;;;;;11.50;5.10;;;;;;;26.69;33.20;101714.38;5039959;28;20420;-73
2022/06/12 05:36:12;;;;;;;8.87;5.20;;;;;;;28.38;30.68;101700.38;5039654;28;20428;-73
2022/06/12 05:38:38;;;;;;;6.97;4.93;;;;;;;28.96;29.69;101694.81;5039559;28;20475;-73
2022/06/12 05:41:03;;;;;;;9.30;5.67;;;;;;;27.28;32.21;101698.44;5040166;28;20670;-73
2022/06/12 05:43:29;;;;;;;5.70;4.63;;;;;;;29.09;29.23;101695.00;5039438;28;20173;-73
2022/06/12 05:45:55;;;;;;;7.77;4.57;;;;;;;28.51;29.38;101692.59;5039610;28;20179;-73
2022/06/12 05:48:22;;;;;;;14.00;5.07;;;;;;;29.40;28.22;101691.56;5039951;28;20456;-73
2022/06/12 05:50:56;;;;;;;10.77;4.80;;;;;;;27.13;32.08;101695.53;5039509;28;20807;-73
2022/06/12 05:53:23;;;;;;;8.67;4.57;;;;;;;26.97;32.23;101694.47;5038416;28;20687;-74
2022/06/12 05:55:49;;;;;;;8.83;4.70;;;;;;;27.70;31.03;101686.72;5039365;28;20424;-74
2022/06/12 05:58:15;;;;;;;6.40;4.40;;;;;;;27.66;31.34;101691.34;5038656;28;20894;-72
2022/06/12 06:00:41;;;;;;;8.30;4.40;;;;;;;28.46;29.73;101689.25;5039200;28;20166;-73
2022/06/12 06:03:07;;;;;;;6.43;3.73;;;;;;;28.89;29.03;101697.81;5037786;28;20444;-72
2022/06/12 06:05:35;;;;;;;7.17;4.10;;;;;;;27.53;31.54;101693.72;5039243;28;20437;-72
2022/06/12 06:08:00;;;;;;;5.63;3.63;;;;;;;28.72;29.65;101700.50;5038809;28;20170;-73
2022/06/12 06:10:27;;;;;;;7.77;4.27;;;;;;;28.35;29.73;101699.69;5020128;28;20720;-73
2022/06/12 06:12:52;;;;;;;8.90;4.20;;;;;;;28.10;30.86;101698.19;5019031;28;20249;-74
2022/06/12 06:15:19;;;;;;;8.40;3.80;;;;;;;28.73;29.73;101697.72;5021015;28;20437;-73
2022/06/12 06:17:44;;;;;;;8.17;4.60;;;;;;;28.98;29.37;101699.13;5038615;28;20275;-74
2022/06/12 06:20:14;;;;;;;7.77;4.50;;;;;;;28.47;30.04;101691.00;5038508;28;20801;-74
2022/06/12 06:22:39;;;;;;;7.63;3.97;;;;;;;27.88;30.88;101690.31;5038292;28;20221;-74
2022/06/12 06:25:05;;;;;;;10.47;4.30;;;;;;;28.15;30.74;101697.97;5038765;28;20425;-73
2022/06/12 06:27:30;;;;;;;7.70;4.03;;;;;;;28.45;30.83;101692.03;5038775;28;20586;-74
2022/06/12 06:29:56;;;;;;;10.67;4.40;;;;;;;28.49;29.36;101689.09;5038777;28;20304;-74
2022/06/12 06:32:21;;;;;;;5.97;4.10;;;;;;;28.72;29.84;101697.81;5038377;28;20197;-74
2022/06/12 06:34:46;;;;;;;10.47;4.20;;;;;;;29.20;29.12;101695.28;5047753;28;20544;-73
2022/06/12 06:37:13;;;;;;;7.97;4.80;;;;;;;29.50;29.63;101692.78;5044096;28;20220;-73
2022/06/12 06:39:39;;;;;;;9.60;4.47;;;;;;;30.09;29.25;101689.50;5051484;28;20269;-74
2022/06/12 06:42:06;;;;;;;9.20;4.50;;;;;;;30.39;28.88;101702.13;5052175;28;20427;-73
2022/06/12 06:47:16;;;;;;;8.53;4.30;;;;;;;29.63;29.43;101690.28;5052407;28;20414;-74
2022/06/12 06:49:41;;;;;;;9.80;4.10;;;;;;;29.25;29.91;101687.88;5038794;28;20511;-74
2022/06/12 06:52:07;;;;;;;11.27;4.23;;;;;;;29.20;29.78;101696.19;5040239;28;20186;-74
2022/06/12 06:54:33;;;;;;;6.87;4.10;;;;;;;29.07;29.83;101692.41;5042678;28;20190;-74
2022/06/12 06:56:58;;;;;;;10.60;4.87;;;;;;;29.90;29.21;101693.28;5053142;28;20173;-74
2022/06/12 06:59:23;;;;;;;8.07;4.00;;;;;;;30.60;28.59;101691.09;5040790;28;20182;-74
2022/06/12 07:01:49;;;;;;;9.83;4.03;;;;;;;29.72;29.02;101691.59;5037968;28;20243;-74
2022/06/12 07:04:15;;;;;;;5.67;3.90;;;;;;;30.29;28.66;101680.28;5044230;28;20215;-73
2022/06/12 07:06:41;;;;;;;8.27;4.00;;;;;;;30.57;27.60;101689.44;5043383;28;20180;-74
2022/06/12 07:09:07;;;;;;;10.50;4.20;;;;;;;30.91;26.57;101679.31;5043831;28;20216;-73
2022/06/12 07:11:33;;;;;;;8.57;3.60;;;;;;;30.29;27.48;101685.66;5048177;28;20460;-69
2022/06/12 07:13:58;;;;;;;8.83;3.80;;;;;;;31.06;26.23;101688.28;5047460;28;20177;-73
2022/06/12 07:16:26;;;;;;;10.03;4.93;;;;;;;30.17;27.64;101695.31;5046196;28;20455;-71
2022/06/12 07:18:51;;;;;;;5.57;3.60;;;;;;;29.66;28.18;101689.25;5039970;28;20233;-71
2022/06/12 07:21:16;;;;;;;8.23;3.63;;;;;;;30.26;28.12;101685.84;5040200;28;20877;-71
2022/06/12 07:23:42;;;;;;;6.33;3.40;;;;;;;29.74;27.22;101676.22;5037411;28;20186;-70
2022/06/12 07:26:15;;;;;;;6.33;3.83;;;;;;;31.25;27.14;101682.63;5036272;28;20208;-71
2022/06/12 07:28:42;;;;;;;7.07;3.67;;;;;;;31.03;26.63;101680.41;5036691;28;20424;-71
2022/06/12 07:31:08;;;;;;;6.20;3.60;;;;;;;30.35;27.14;101676.34;5036845;28;20469;-70
2022/06/12 07:33:34;;;;;;;9.50;3.77;;;;;;;30.64;26.73;101679.19;5036335;28;20543;-70
2022/06/12 07:36:00;;;;;;;6.50;3.67;;;;;;;31.17;25.86;101677.69;5052741;28;20224;-70
2022/06/12 07:38:27;;;;;;;7.53;4.47;;;;;;;30.67;26.58;101684.38;5056725;28;20792;-70
2022/06/12 07:40:57;;;;;;;6.13;3.40;;;;;;;30.98;27.03;101671.72;5057092;28;20173;-70
2022/06/12 07:43:23;;;;;;;5.10;3.97;;;;;;;31.53;26.44;101670.09;5057207;28;20682;-70
2022/06/12 07:45:51;;;;;;;5.50;3.80;;;;;;;29.57;27.53;101672.69;5057998;28;20404;-70
2022/06/12 07:48:18;;;;;;;7.10;3.70;;;;;;;30.41;27.37;101665.25;5056923;28;20408;-72
2022/06/12 07:50:43;;;;;;;5.07;3.73;;;;;;;31.21;26.88;101663.06;5046719;28;20421;-73
2022/06/12 07:53:10;;;;;;;5.83;3.27;;;;;;;31.25;25.07;101663.75;5037866;28;20448;-72
2022/06/12 07:55:35;;;;;;;5.53;3.77;;;;;;;30.40;26.52;101664.38;5037569;28;20205;-73
2022/06/12 07:58:01;;;;;;;9.23;6.03;;;;;;;30.76;25.98;101673.03;5037471;28;20470;-73
2022/06/12 08:00:27;;;;;;;5.30;3.30;;;;;;;30.40;25.43;101674.25;5037935;28;20590;-73
2022/06/12 08:02:52;;;;;;;4.60;3.17;;;;;;;30.05;26.52;101677.19;5037300;28;20178;-73
2022/06/12 08:05:19;;;;;;;13.83;3.97;;;;;;;31.18;25.32;101663.28;5039726;28;20185;-73
2022/06/12 08:07:44;;;;;;;7.53;3.63;;;;;;;32.01;25.10;101669.69;5041647;28;20162;-73
2022/06/12 08:10:11;;;;;;;7.20;4.07;;;;;;;31.50;25.41;101676.53;5041151;28;20419;-72
2022/06/12 08:12:38;;;;;;;6.43;3.60;;;;;;;31.05;25.74;101670.41;5041244;28;20181;-73
2022/06/12 08:15:09;;;;;;;5.20;3.40;;;;;;;31.64;24.21;101664.03;5040751;28;20413;-74
2022/06/12 08:17:35;;;;;;;5.10;3.30;;;;;;;30.93;25.74;101679.22;5040889;28;20896;-71
2022/06/12 08:22:44;;;;;;;7.13;3.23;;;;;;;30.31;25.22;101678.38;5040781;28;20189;-73
2022/06/12 08:25:09;;;;;;;6.43;3.70;;;;;;;31.10;24.72;101662.91;5040808;28;20682;-73
2022/06/12 08:27:36;;;;;;;4.67;3.33;;;;;;;31.82;24.00;101673.59;5040798;28;20174;-72
2022/06/12 08:30:03;;;;;;;6.93;3.83;;;;;;;31.02;24.99;101673.25;5041050;28;20555;-73
2022/06/12 08:32:28;;;;;;;4.83;3.20;;;;;;;31.01;25.51;101682.28;5041164;28;20471;-73
2022/06/12 08:34:57;;;;;;;7.73;3.50;;;;;;;29.88;25.97;101670.13;5040807;28;20417;-71
2022/06/12 08:37:30;;;;;;;6.77;3.40;;;;;;;28.62;27.79;101667.00;5039792;28;20594;-73
2022/06/12 08:39:57;;;;;;;5.63;3.40;;;;;;;29.42;27.44;101665.50;5039839;28;20486;-73
2022/06/12 08:42:25;;;;;;;4.73;3.60;;;;;;;30.74;26.27;101653.41;5039742;28;20726;-74
2022/06/12 08:45:17;;;;;;;4.77;3.50;;;;;;;30.89;25.38;101647.09;5040353;28;20409;-73
2022/06/12 08:47:56;;;;;;;4.93;3.47;;;;;;;30.67;26.36;101647.53;5040408;28;20428;-73
2022/06/12 08:50:26;;;;;;;8.63;3.63;;;;;;;30.98;25.32;101645.63;5039791;28;20447;-74
2022/06/12 08:52:53;;;;;;;6.00;3.37;;;;;;;31.73;25.04;101647.22;5040241;28;20726;-74
2022/06/12 08:55:19;;;;;;;8.07;4.27;;;;;;;32.91;23.77;101646.44;5040446;28;20817;-74
2022/06/12 08:58:05;;;;;;;6.47;3.50;;;;;;;31.50;24.64;101644.19;5040630;28;20457;-73
2022/06/12 09:00:35;;;;;;;5.23;3.70;;;;;;;31.34;24.55;101646.16;5039464;28;20175;-74
2022/06/12 09:03:02;;;;;;;4.47;3.23;;;;;;;32.11;25.06;101649.22;5040244;28;20413;-73
2022/06/12 09:05:43;;;;;;;4.10;3.10;;;;;;;31.83;24.31;101640.28;5040577;28;20701;-72
2022/06/12 09:08:14;;;;;;;4.07;3.07;;;;;;;31.51;24.26;101632.44;5040965;28;20416;-73
2022/06/12 09:10:45;;;;;;;4.83;3.90;;;;;;;32.44;24.15;101631.72;5041332;28;20409;-72
2022/06/12 09:13:29;;;;;;;5.30;3.43;;;;;;;31.92;24.31;101630.72;5040467;28;20447;-72
2022/06/12 09:16:00;;;;;;;6.83;3.60;;;;;;;30.22;26.27;101636.72;5041714;28;20456;-72
2022/06/12 09:18:40;;;;;;;7.10;5.33;;;;;;;30.91;25.75;101622.75;5041463;28;20808;-72
2022/06/12 09:21:15;;;;;;;6.30;3.40;;;;;;;31.06;25.37;101631.72;5041947;28;20446;-74
2022/06/12 09:23:40;;;;;;;6.60;3.40;;;;;;;31.27;24.88;101625.94;5044105;28;20736;-76
2022/06/12 09:26:36;;;;;;;8.80;3.40;;;;;;;31.00;25.32;101632.97;5046601;28;20508;-75
2022/06/12 09:29:10;;;;;;;6.80;3.47;;;;;;;31.45;24.48;101638.22;5039678;28;20178;-76
2022/06/12 09:31:46;;;;;;;6.50;4.00;;;;;;;30.71;25.11;101626.69;5039955;28;20412;-74
2022/06/12 09:34:38;;;;;;;11.70;3.73;;;;;;;30.48;25.67;101625.41;5039770;28;20438;-73
2022/06/12 09:40:09;;;;;;;5.80;3.60;;;;;;;30.14;25.97;101614.81;5039699;28;20444;-74
2022/06/12 09:42:55;;;;;;;5.57;3.50;;;;;;;30.65;26.01;101613.59;5038775;28;20426;-72
2022/06/12 09:45:36;;;;;;;6.80;3.57;;;;;;;32.52;23.38;101602.34;5039607;28;20417;-75
2022/06/12 09:48:14;;;;;;;6.10;3.40;;;;;;;31.31;24.64;101616.69;5038003;28;20531;-75
2022/06/12 09:51:12;;;;;;;7.47;3.90;;;;;;;30.76;25.15;101611.13;5038553;28;20811;-73
2022/06/12 09:53:53;;;;;;;5.47;3.00;;;;;;;31.15;24.57;101623.06;5031173;28;20510;-73
2022/06/12 09:56:27;;;;;;;4.70;3.00;;;;;;;31.58;24.02;101614.03;5039273;28;20431;-75
2022/06/12 09:59:03;;;;;;;7.90;4.33;;;;;;;30.85;24.95;101605.16;5038381;28;20475;-75
2022/06/12 10:01:33;;;;;;;4.90;3.60;;;;;;;31.48;24.46;101605.69;5038215;28;20470;-76
2022/06/12 10:04:16;;;;;;;3.67;3.27;;;;;;;32.47;23.38;101606.34;5039094;28;20432;-76
2022/06/12 10:07:08;;;;;;;4.77;3.40;;;;;;;31.28;24.05;101608.81;5038640;28;20466;-76
2022/06/12 10:09:51;;;;;;;4.40;3.17;;;;;;;30.20;24.75;101610.88;5038296;28;20504;-76
2022/06/12 10:12:41;;;;;;;5.20;3.30;;;;;;;29.67;26.10;101602.28;5038030;28;20425;-74
2022/06/12 10:15:14;;;;;;;5.53;3.43;;;;;;;31.71;24.13;101590.72;5029123;28;20579;-75
2022/06/12 10:17:44;;;;;;;4.33;3.40;;;;;;;30.75;24.27;101590.53;5038778;28;20476;-72
2022/06/12 10:20:14;;;;;;;4.93;3.50;;;;;;;30.78;24.98;101582.28;5038035;28;20409;-76
2022/06/12 10:22:45;;;;;;;6.00;3.30;;;;;;;31.69;24.27;101573.81;5038033;28;20432;-75
2022/06/12 10:25:32;;;;;;;5.00;3.37;;;;;;;30.29;25.54;101582.59;5038722;28;20799;-77
2022/06/12 10:28:04;;;;;;;5.63;3.73;;;;;;;29.48;26.93;101586.38;5021205;28;20428;-76
2022/06/12 10:30:44;;;;;;;6.40;3.60;;;;;;;28.61;26.91;101584.81;5054525;28;20432;-75
2022/06/12 10:33:21;;;;;;;3.90;3.60;;;;;;;30.18;25.50;101583.22;5035690;28;20447;-75
2022/06/12 10:35:54;;;;;;;3.63;2.90;;;;;;;29.40;26.61;101576.03;5018966;28;20440;-74
2022/06/12 10:38:21;;;;;;;5.73;3.40;;;;;;;30.03;25.50;101576.94;5018722;28;20466;-74
2022/06/12 10:40:50;;;;;;;6.90;3.70;;;;;;;30.54;24.96;101576.59;5018930;28;20714;-75
2022/06/12 10:43:28;;;;;;;5.90;3.50;;;;;;;30.28;25.14;101579.00;5023567;28;20760;-75
2022/06/12 10:46:17;;;;;;;4.77;3.50;;;;;;;30.80;24.74;101579.50;5036677;28;20437;-75
2022/06/12 10:48:57;;;;;;;5.10;3.40;;;;;;;30.85;24.94;101570.19;5037812;28;20689;-73
2022/06/12 10:51:25;;;;;;;6.30;3.60;;;;;;;29.70;25.61;101567.19;5037529;28;20456;-74
2022/06/12 10:54:08;;;;;;;5.00;3.17;;;;;;;29.49;25.98;101564.78;5041522;28;20540;-73
2022/06/12 10:56:58;;;;;;;5.83;3.60;;;;;;;29.39;25.82;101567.13;5048936;28;20835;-74
2022/06/12 10:59:32;;;;;;;5.43;3.67;;;;;;;30.55;25.25;101555.00;5020502;28;20472;-75
2022/06/12 11:02:07;;;;;;;4.50;3.43;;;;;;;29.07;26.92;101553.66;5027029;28;20445;-75
2022/06/12 11:04:50;;;;;;;5.20;3.77;;;;;;;29.67;26.34;101559.31;5048010;28;20454;-76
2022/06/12 11:07:24;;;;;;;4.30;3.40;;;;;;;29.53;26.95;101552.06;5035402;28;20444;-74
2022/06/12 11:10:14;;;;;;;5.70;3.10;;;;;;;30.26;24.70;101551.34;5035908;28;20539;-76
2022/06/12 11:13:15;;;;;;;6.60;3.47;;;;;;;29.90;24.97;101548.09;5037513;28;20417;-76
2022/06/12 11:15:44;;;;;;;4.47;3.27;;;;;;;29.36;25.92;101539.56;5036066;28;20432;-73
2022/06/12 11:18:24;;;;;;;4.90;3.37;;;;;;;29.16;26.59;101546.91;5036569;28;20477;-76
2022/06/12 11:20:55;;;;;;;5.27;3.23;;;;;;;28.43;28.04;101544.59;5035968;28;20810;-71
2022/06/12 11:23:30;;;;;;;4.40;3.57;;;;;;;28.08;28.26;101547.31;5036200;28;20445;-70
2022/06/12 11:26:01;;;;;;;5.67;3.30;;;;;;;27.91;27.75;101540.06;5037850;28;20810;-71
2022/06/12 11:28:26;;;;;;;7.20;3.80;;;;;;;27.71;28.80;101535.72;5038192;28;20833;-71
2022/06/12 11:31:10;;;;;;;4.60;3.30;;;;;;;28.30;27.76;101532.78;5036995;28;20409;-71
2022/06/12 11:33:54;;;;;;;6.60;3.70;;;;;;;27.17;29.71;101528.47;5037619;28;20190;-71
2022/06/12 11:36:38;;;;;;;6.00;3.60;;;;;;;26.65;30.61;101534.41;5037875;28;20436;-71
2022/06/12 11:39:06;;;;;;;6.73;3.90;;;;;;;27.20;29.88;101530.16;5022798;28;20468;-70
2022/06/12 11:42:03;;;;;;;5.77;3.70;;;;;;;28.10;29.00;101529.31;5042225;28;20475;-71
2022/06/12 11:44:40;;;;;;;8.77;4.40;;;;;;;28.28;27.83;101518.56;5041894;28;20405;-71
2022/06/12 11:47:37;;;;;;;6.40;3.67;;;;;;;29.44;26.49;101521.19;5043372;28;20444;-73
2022/06/12 11:50:18;;;;;;;4.63;3.53;;;;;;;27.82;28.60;101516.41;5042172;28;20421;-71
2022/06/12 11:53:18;;;;;;;8.03;3.30;;;;;;;26.71;29.82;101523.47;5043108;28;20456;-72
2022/06/12 11:56:13;;;;;;;5.20;3.30;;;;;;;27.35;29.53;101512.47;5041628;28;20428;-72
2022/06/12 11:59:08;;;;;;;5.13;3.50;;;;;;;26.58;30.48;101510.72;5042359;28;20736;-72
2022/06/12 12:02:01;;;;;;;6.60;3.20;;;;;;;26.71;31.20;101515.47;5042221;28;20439;-71
2022/06/12 12:04:35;;;;;;;6.50;3.40;;;;;;;26.87;30.15;101509.38;5042376;28;20428;-71